createdAt,value
2023-03-10T00:00:38.422Z,98695.00
2023-03-10T00:03:05.078Z,98693.00
2023-03-10T00:05:31.971Z,98690.00
2023-03-10T00:07:58.641Z,98697.00
2023-03-10T00:10:25.392Z,98691.00
2023-03-10T00:12:52.010Z,98689.00
2023-03-10T00:15:18.894Z,98687.00
2023-03-10T00:17:45.613Z,98686.00
2023-03-10T00:20:12.959Z,98681.00
2023-03-10T00:22:41.720Z,98679.00
2023-03-10T00:25:09.770Z,98677.00
2023-03-10T00:27:36.781Z,98667.00
2023-03-10T00:30:03.793Z,98673.00
2023-03-10T00:32:30.811Z,98679.00
2023-03-10T00:34:57.545Z,98678.00
2023-03-10T00:37:24.195Z,98669.00
2023-03-10T00:39:52.445Z,98666.00
2023-03-10T00:42:19.536Z,98658.00
2023-03-10T00:44:46.389Z,98656.00
2023-03-10T00:47:12.997Z,98653.00
2023-03-10T00:49:39.634Z,98648.00
2023-03-10T00:52:06.449Z,98654.00
2023-03-10T00:54:33.064Z,98640.00
2023-03-10T00:56:59.628Z,98639.00
2023-03-10T00:59:26.239Z,98645.00
2023-03-10T01:01:53.018Z,98637.00
2023-03-10T01:04:20.059Z,98641.00
2023-03-10T01:06:47.766Z,98645.00
2023-03-10T01:09:14.901Z,98638.00
2023-03-10T01:11:41.554Z,98640.00
2023-03-10T01:14:09.450Z,98633.00
2023-03-10T01:16:36.138Z,98639.00
2023-03-10T01:19:02.755Z,98642.00
2023-03-10T01:21:32.350Z,98632.00
2023-03-10T01:24:00.354Z,98626.00
2023-03-10T01:26:27.430Z,98626.00
2023-03-10T01:28:53.977Z,98610.00
2023-03-10T01:31:20.749Z,98611.00
2023-03-10T01:33:48.041Z,98606.00
2023-03-10T01:36:18.662Z,98605.00
2023-03-10T01:38:46.323Z,98587.00
2023-03-10T01:41:13.084Z,98583.00
2023-03-10T01:43:44.466Z,98593.00
2023-03-10T01:46:35.829Z,98585.00
2023-03-10T01:49:16.517Z,98597.00
2023-03-10T01:51:46.082Z,98585.00
2023-03-10T01:54:18.529Z,98568.00
2023-03-10T01:56:46.825Z,98584.00
2023-03-10T01:59:14.538Z,98582.00
2023-03-10T02:01:41.379Z,98585.00
2023-03-10T02:04:29.504Z,98573.00
2023-03-10T02:06:57.346Z,98575.00
2023-03-10T02:09:25.190Z,98567.00
2023-03-10T02:11:52.046Z,98567.00
2023-03-10T02:14:19.093Z,98558.00
2023-03-10T02:16:46.128Z,98566.00
2023-03-10T02:19:29.611Z,98557.00
2023-03-10T02:22:10.390Z,98529.00
2023-03-10T02:24:55.726Z,98541.00
2023-03-10T02:27:29.807Z,98540.00
2023-03-10T02:30:03.227Z,98536.00
2023-03-10T02:32:33.808Z,98536.00
2023-03-10T02:35:00.967Z,98531.00
2023-03-10T02:37:30.628Z,98525.00
2023-03-10T02:39:57.624Z,98520.00
2023-03-10T02:42:29.473Z,98525.00
2023-03-10T02:44:56.800Z,98528.00
2023-03-10T02:47:23.576Z,98522.00
2023-03-10T02:49:50.215Z,98535.00
2023-03-10T02:52:29.679Z,98516.00
2023-03-10T02:54:56.341Z,98524.00
2023-03-10T02:57:22.943Z,98523.00
2023-03-10T02:59:49.623Z,98518.00
2023-03-10T03:02:16.281Z,98513.00
2023-03-10T03:04:43.206Z,98507.00
2023-03-10T03:07:09.874Z,98509.00
2023-03-10T03:09:36.517Z,98500.00
2023-03-10T03:12:03.297Z,98500.00
2023-03-10T03:14:29.894Z,98501.00
2023-03-10T03:16:56.597Z,98499.00
2023-03-10T03:19:23.207Z,98497.00
2023-03-10T03:21:50.224Z,98493.00
2023-03-10T03:24:18.065Z,98490.00
2023-03-10T03:26:44.826Z,98484.00
2023-03-10T03:29:12.099Z,98482.00
2023-03-10T03:31:38.970Z,98477.00
2023-03-10T03:34:06.018Z,98486.00
2023-03-10T03:36:32.780Z,98477.00
2023-03-10T03:38:59.477Z,98477.00
2023-03-10T03:41:26.111Z,98474.00
2023-03-10T03:43:52.741Z,98477.00
2023-03-10T03:46:19.347Z,98464.00
2023-03-10T03:48:45.954Z,98467.00
2023-03-10T03:51:12.619Z,98463.00
2023-03-10T03:53:39.220Z,98462.00
2023-03-10T03:56:06.107Z,98466.00
2023-03-10T03:58:32.767Z,98463.00
2023-03-10T04:00:59.447Z,98465.00
2023-03-10T04:03:26.082Z,98456.00
2023-03-10T04:05:52.766Z,98458.00
2023-03-10T04:08:19.432Z,98462.00
2023-03-10T04:10:55.801Z,98453.00
2023-03-10T04:13:22.444Z,98455.00
2023-03-10T04:15:49.081Z,98465.00
2023-03-10T04:18:15.721Z,98467.00
2023-03-10T04:20:42.347Z,98459.00
2023-03-10T04:23:09.000Z,98456.00
2023-03-10T04:25:36.388Z,98459.00
2023-03-10T04:28:03.162Z,98459.00
2023-03-10T04:30:29.968Z,98450.00
2023-03-10T04:32:59.353Z,98459.00
2023-03-10T04:35:26.204Z,98443.00
2023-03-10T04:37:53.285Z,98445.00
2023-03-10T04:40:20.175Z,98448.00
2023-03-10T04:42:47.360Z,98436.00
2023-03-10T04:45:14.378Z,98436.00
2023-03-10T04:47:41.157Z,98438.00
2023-03-10T04:50:10.178Z,98432.00
2023-03-10T04:52:36.780Z,98427.00
2023-03-10T04:55:03.723Z,98433.00
2023-03-10T04:57:30.336Z,98427.00
2023-03-10T04:59:56.944Z,98424.00
2023-03-10T05:02:23.607Z,98435.00
2023-03-10T05:04:50.444Z,98426.00
2023-03-10T05:07:17.130Z,98427.00
2023-03-10T05:09:43.822Z,98424.00
2023-03-10T05:12:10.590Z,98428.00
2023-03-10T05:14:37.929Z,98422.00
2023-03-10T05:17:04.897Z,98425.00
2023-03-10T05:19:33.987Z,98426.00
2023-03-10T05:22:01.072Z,98428.00
2023-03-10T05:24:27.646Z,98418.00
2023-03-10T05:26:54.227Z,98419.00
2023-03-10T05:29:20.975Z,98410.00
2023-03-10T05:31:48.082Z,98411.00
2023-03-10T05:34:15.134Z,98406.00
2023-03-10T05:36:43.137Z,98401.00
2023-03-10T05:39:11.021Z,98390.00
2023-03-10T05:41:38.631Z,98390.00
2023-03-10T05:44:05.468Z,98398.00
2023-03-10T05:46:32.140Z,98398.00
2023-03-10T05:48:58.735Z,98397.00
2023-03-10T05:51:25.476Z,98390.00
2023-03-10T05:53:52.126Z,98379.00
2023-03-10T05:56:19.612Z,98385.00
2023-03-10T05:58:47.209Z,98378.00
2023-03-10T06:01:14.604Z,98380.00
2023-03-10T06:03:41.495Z,98380.00
2023-03-10T06:06:08.418Z,98379.00
2023-03-10T06:08:35.513Z,98387.00
2023-03-10T06:11:02.860Z,98365.00
2023-03-10T06:13:29.670Z,98375.00
2023-03-10T06:16:01.594Z,98379.00
2023-03-10T06:18:29.226Z,98370.00
2023-03-10T06:20:56.056Z,98378.00
2023-03-10T06:23:23.883Z,98379.00
2023-03-10T06:26:02.202Z,98382.00
2023-03-10T06:28:33.372Z,98373.00
2023-03-10T06:31:01.434Z,98373.00
2023-03-10T06:33:29.348Z,98379.00
2023-03-10T06:35:56.154Z,98375.00
2023-03-10T06:38:23.582Z,98369.00
2023-03-10T06:40:50.722Z,98379.00
2023-03-10T06:43:17.524Z,98378.00
2023-03-10T06:45:45.824Z,98379.00
2023-03-10T06:48:13.162Z,98378.00
2023-03-10T06:50:50.443Z,98376.00
2023-03-10T06:53:20.345Z,98377.00
2023-03-10T06:56:01.489Z,98377.00
2023-03-10T06:58:29.468Z,98376.00
2023-03-10T07:00:56.587Z,98376.00
2023-03-10T07:03:26.067Z,98373.00
2023-03-10T07:05:53.134Z,98383.00
2023-03-10T07:08:20.139Z,98384.00
2023-03-10T07:10:46.798Z,98380.00
2023-03-10T07:13:17.346Z,98381.00
2023-03-10T07:15:45.345Z,98375.00
2023-03-10T07:18:12.834Z,98374.00
2023-03-10T07:20:41.041Z,98367.00
2023-03-10T07:23:07.966Z,98377.00
2023-03-10T07:25:36.281Z,98368.00
2023-03-10T07:28:04.695Z,98372.00
2023-03-10T07:30:32.185Z,98379.00
2023-03-10T07:32:58.924Z,98381.00
2023-03-10T07:35:25.902Z,98379.00
2023-03-10T07:37:52.583Z,98381.00
2023-03-10T07:40:22.788Z,98385.00
2023-03-10T07:42:49.442Z,98389.00
2023-03-10T07:45:16.160Z,98394.00
2023-03-10T07:47:42.775Z,98393.00
2023-03-10T07:50:10.289Z,98387.00
2023-03-10T07:52:37.144Z,98396.00
2023-03-10T07:55:04.373Z,98385.00
2023-03-10T07:57:31.022Z,98391.00
2023-03-10T07:59:57.727Z,98411.00
2023-03-10T08:02:24.297Z,98402.00
2023-03-10T08:04:52.117Z,98412.00
2023-03-10T08:07:19.049Z,98411.00
2023-03-10T08:09:52.720Z,98422.00
2023-03-10T08:12:20.906Z,98413.00
2023-03-10T08:14:48.584Z,98413.00
2023-03-10T08:17:15.444Z,98412.00
2023-03-10T08:19:42.419Z,98410.00
2023-03-10T08:22:10.257Z,98421.00
2023-03-10T08:24:38.003Z,98411.00
2023-03-10T08:27:05.512Z,98414.00
2023-03-10T08:29:32.358Z,98427.00
2023-03-10T08:31:58.991Z,98430.00
2023-03-10T08:34:25.671Z,98445.00
2023-03-10T08:36:52.487Z,98450.00
2023-03-10T08:39:19.117Z,98458.00
2023-03-10T08:41:49.255Z,98450.00
2023-03-10T08:44:18.040Z,98458.00
2023-03-10T08:46:47.183Z,98468.00
2023-03-10T08:49:15.580Z,98479.00
2023-03-10T08:51:42.690Z,98478.00
2023-03-10T08:54:11.817Z,98476.00
2023-03-10T08:56:38.518Z,98475.00
2023-03-10T08:59:05.251Z,98471.00
2023-03-10T09:01:34.321Z,98474.00
2023-03-10T09:04:02.434Z,98480.00
2023-03-10T09:06:30.085Z,98475.00
2023-03-10T09:08:57.110Z,98490.00
2023-03-10T09:11:27.010Z,98479.00
2023-03-10T09:13:54.175Z,98494.00
2023-03-10T09:16:21.165Z,98494.00
2023-03-10T09:18:48.859Z,98496.00
2023-03-10T09:21:17.623Z,98501.00
2023-03-10T09:23:46.670Z,98517.00
2023-03-10T09:26:13.735Z,98528.00
2023-03-10T09:28:40.625Z,98527.00
2023-03-10T09:31:08.598Z,98529.00
2023-03-10T09:33:35.902Z,98531.00
2023-03-10T09:36:07.358Z,98545.00
2023-03-10T09:38:35.288Z,98552.00
2023-03-10T09:41:38.311Z,98574.00
2023-03-10T09:45:09.855Z,98576.00
2023-03-10T09:47:55.181Z,98585.00
2023-03-10T09:50:38.891Z,98592.00
2023-03-10T09:53:35.355Z,98602.00
2023-03-10T09:56:10.506Z,98605.00
2023-03-10T09:58:41.488Z,98610.00
2023-03-10T10:01:17.445Z,98611.00
2023-03-10T10:03:52.987Z,98631.00
2023-03-10T10:06:27.665Z,98629.00
2023-03-10T10:09:05.810Z,98628.00
2023-03-10T10:11:34.427Z,98619.00
2023-03-10T10:14:30.595Z,98630.00
2023-03-10T10:17:20.868Z,98628.00
2023-03-10T10:19:48.549Z,98629.00
2023-03-10T10:22:26.499Z,98626.00
2023-03-10T10:25:02.790Z,98629.00
2023-03-10T10:27:31.513Z,98634.00
2023-03-10T10:29:58.603Z,98640.00
2023-03-10T10:32:25.437Z,98641.00
2023-03-10T10:34:52.136Z,98656.00
2023-03-10T10:37:29.874Z,98662.00
2023-03-10T10:39:59.096Z,98688.00
2023-03-10T10:42:32.092Z,98712.00
2023-03-10T10:45:02.442Z,98722.00
2023-03-10T10:47:58.573Z,98738.00
2023-03-10T10:50:32.299Z,98737.00
2023-03-10T10:53:19.820Z,98734.00
2023-03-10T10:55:58.743Z,98727.00
2023-03-10T10:58:30.036Z,98720.00
2023-03-10T11:01:02.974Z,98724.00
2023-03-10T11:03:36.999Z,98733.00
2023-03-10T11:06:19.742Z,98740.00
2023-03-10T11:08:51.257Z,98732.00
2023-03-10T11:11:24.515Z,98735.00
2023-03-10T11:13:56.789Z,98747.00
2023-03-10T11:16:23.310Z,98751.00
2023-03-10T11:18:55.670Z,98754.00
2023-03-10T11:21:29.378Z,98768.00
2023-03-10T11:24:25.583Z,98758.00
2023-03-10T11:26:59.503Z,98754.00
2023-03-10T11:29:47.751Z,98762.00
2023-03-10T11:32:14.540Z,98754.00
2023-03-10T11:34:49.267Z,98761.00
2023-03-10T11:37:31.025Z,98770.00
2023-03-10T11:40:16.356Z,98775.00
2023-03-10T11:42:56.096Z,98772.00
2023-03-10T11:45:41.891Z,98773.00
2023-03-10T11:48:23.656Z,98791.00
2023-03-10T11:51:00.629Z,98784.00
2023-03-10T11:53:44.477Z,98809.00
2023-03-10T11:56:14.893Z,98824.00
2023-03-10T11:58:50.175Z,98893.00
2023-03-10T12:01:23.227Z,98918.00
2023-03-10T12:03:59.537Z,98955.00
2023-03-10T12:06:57.610Z,98978.00
2023-03-10T12:09:50.510Z,98997.00
2023-03-10T12:12:41.949Z,99024.00
2023-03-10T12:15:23.745Z,99032.00
2023-03-10T12:17:51.911Z,99049.00
2023-03-10T12:20:18.460Z,99074.00
2023-03-10T12:22:46.790Z,99070.00
2023-03-10T12:25:28.556Z,99094.00
2023-03-10T12:28:16.563Z,99097.00
2023-03-10T12:30:51.446Z,99128.00
2023-03-10T12:33:30.258Z,99144.00
2023-03-10T12:36:02.623Z,99136.00
2023-03-10T12:38:31.139Z,99159.00
2023-03-10T12:41:00.048Z,99166.00
2023-03-10T12:43:59.288Z,99188.00
2023-03-10T12:46:45.866Z,99211.00
2023-03-10T12:49:33.712Z,99236.00
2023-03-10T12:52:13.156Z,99253.00
2023-03-10T12:54:55.324Z,99274.00
2023-03-10T12:57:21.908Z,99291.00
2023-03-10T12:59:48.518Z,99347.00
2023-03-10T13:02:26.233Z,99367.00
2023-03-10T13:04:58.950Z,99387.00
2023-03-10T13:07:28.776Z,99407.00
2023-03-10T13:09:56.999Z,99429.00
2023-03-10T13:12:31.118Z,99443.00
2023-03-10T13:15:00.281Z,99468.00
2023-03-10T13:17:32.804Z,99494.00
2023-03-10T13:20:05.811Z,99516.00
2023-03-10T13:22:33.217Z,99529.00
2023-03-10T13:25:02.730Z,99544.00
2023-03-10T13:27:31.887Z,99582.00
2023-03-10T13:30:11.060Z,99610.00
2023-03-10T13:32:37.950Z,99631.00
2023-03-10T13:35:36.231Z,99637.00
2023-03-10T13:38:16.384Z,99653.00
2023-03-10T13:40:47.451Z,99657.00
2023-03-10T13:43:39.787Z,99690.00
2023-03-10T13:46:14.660Z,99709.00
2023-03-10T13:48:42.537Z,99719.00
2023-03-10T13:51:21.189Z,99730.00
2023-03-10T13:53:48.433Z,99747.00
2023-03-10T13:56:18.239Z,99788.00
2023-03-10T13:58:46.745Z,99784.00
2023-03-10T14:01:26.560Z,99800.00
2023-03-10T14:03:58.047Z,99805.00
2023-03-10T14:06:26.586Z,99828.00
2023-03-10T14:08:53.717Z,99845.00
2023-03-10T14:11:41.040Z,99853.00
2023-03-10T14:14:10.474Z,99866.00
2023-03-10T14:16:49.098Z,99873.00
2023-03-10T14:19:35.686Z,99885.00
2023-03-10T14:22:02.559Z,99908.00
2023-03-10T14:24:29.212Z,99909.00
2023-03-10T14:27:00.808Z,99927.00
2023-03-10T14:29:27.576Z,99930.00
2023-03-10T14:31:54.272Z,99927.00
2023-03-10T14:34:20.902Z,99945.00
2023-03-10T14:36:47.470Z,99956.00
2023-03-10T14:39:14.554Z,99962.00
2023-03-10T14:41:41.161Z,99968.00
2023-03-10T14:44:10.688Z,99991.00
2023-03-10T14:46:37.573Z,100001.00
2023-03-10T14:49:08.185Z,100000.00
2023-03-10T14:51:36.439Z,100029.00
2023-03-10T14:54:03.830Z,100048.00
2023-03-10T14:56:31.841Z,100062.00
2023-03-10T14:59:02.144Z,100081.00
2023-03-10T15:01:29.453Z,100096.00
2023-03-10T15:03:56.252Z,100097.00
2023-03-10T15:06:22.854Z,100098.00
2023-03-10T15:08:49.518Z,100106.00
2023-03-10T15:11:24.000Z,100134.00
2023-03-10T15:13:57.665Z,100164.00
2023-03-10T15:16:24.243Z,100183.00
2023-03-10T15:18:53.158Z,100193.00
2023-03-10T15:21:20.062Z,100187.00
2023-03-10T15:23:46.749Z,100180.00
2023-03-10T15:26:13.431Z,100162.00
2023-03-10T15:28:40.294Z,100174.00
2023-03-10T15:31:07.027Z,100185.00
2023-03-10T15:33:33.816Z,100210.00
2023-03-10T15:36:00.524Z,100209.00
2023-03-10T15:38:31.277Z,100223.00
2023-03-10T15:40:58.008Z,100241.00
2023-03-10T15:43:24.571Z,100272.00
2023-03-10T15:45:51.312Z,100272.00
2023-03-10T15:48:18.620Z,100260.00
2023-03-10T15:50:49.006Z,100274.00
2023-03-10T15:53:15.915Z,100255.00
2023-03-10T15:55:42.636Z,100266.00
2023-03-10T15:58:11.124Z,100249.00
2023-03-10T16:00:37.768Z,100260.00
2023-03-10T16:03:04.383Z,100289.00
2023-03-10T16:05:31.124Z,100286.00
2023-03-10T16:07:57.787Z,100279.00
2023-03-10T16:10:24.616Z,100288.00
2023-03-10T16:12:51.775Z,100307.00
2023-03-10T16:15:18.636Z,100301.00
2023-03-10T16:17:45.375Z,100308.00
2023-03-10T16:20:16.985Z,100311.00
2023-03-10T16:22:43.771Z,100323.00
2023-03-10T16:25:15.951Z,100331.00
2023-03-10T16:27:46.337Z,100335.00
2023-03-10T16:30:15.384Z,100368.00
2023-03-10T16:32:46.786Z,100376.00
2023-03-10T16:35:13.698Z,100382.00
2023-03-10T16:37:40.513Z,100382.00
2023-03-10T16:40:08.099Z,100398.00
2023-03-10T16:42:36.762Z,100417.00
2023-03-10T16:45:05.616Z,100427.00
2023-03-10T16:47:32.641Z,100423.00
2023-03-10T16:49:59.264Z,100422.00
2023-03-10T16:52:25.932Z,100413.00
2023-03-10T16:54:57.223Z,100425.00
2023-03-10T16:57:23.866Z,100443.00
2023-03-10T16:59:50.448Z,100439.00
2023-03-10T17:02:17.018Z,100425.00
2023-03-10T17:04:44.685Z,100444.00
2023-03-10T17:07:11.391Z,100432.00
2023-03-10T17:09:38.129Z,100445.00
2023-03-10T17:12:05.179Z,100458.00
2023-03-10T17:14:32.006Z,100475.00
2023-03-10T17:16:58.793Z,100490.00
2023-03-10T17:19:29.883Z,100499.00
2023-03-10T17:21:57.679Z,100508.00
2023-03-10T17:24:24.611Z,100498.00
2023-03-10T17:26:51.331Z,100522.00
2023-03-10T17:29:18.265Z,100505.00
2023-03-10T17:31:48.928Z,100503.00
2023-03-10T17:34:16.425Z,100510.00
2023-03-10T17:36:43.492Z,100499.00
2023-03-10T17:39:17.332Z,100496.00
2023-03-10T17:41:43.909Z,100509.00
2023-03-10T17:44:11.327Z,100540.00
2023-03-10T17:46:41.105Z,100556.00
2023-03-10T17:49:11.124Z,100549.00
2023-03-10T17:51:39.234Z,100555.00
2023-03-10T17:54:07.447Z,100554.00
2023-03-10T17:56:34.137Z,100564.00
2023-03-10T17:59:00.956Z,100568.00
2023-03-10T18:01:29.580Z,100565.00
2023-03-10T18:03:57.764Z,100570.00
2023-03-10T18:06:29.593Z,100563.00
2023-03-10T18:08:57.692Z,100582.00
2023-03-10T18:11:24.574Z,100589.00
2023-03-10T18:13:51.691Z,100595.00
2023-03-10T18:16:24.010Z,100602.00
2023-03-10T18:18:51.250Z,100597.00
2023-03-10T18:21:19.023Z,100604.00
2023-03-10T18:23:46.377Z,100627.00
2023-03-10T18:26:15.800Z,100616.00
2023-03-10T18:28:42.458Z,100623.00
2023-03-10T18:31:16.042Z,100636.00
2023-03-10T18:33:43.592Z,100635.00
2023-03-10T18:36:13.644Z,100629.00
2023-03-10T18:38:41.252Z,100638.00
2023-03-10T18:41:07.951Z,100624.00
2023-03-10T18:43:34.807Z,100632.00
2023-03-10T18:46:01.740Z,100621.00
2023-03-10T18:48:28.876Z,100620.00
2023-03-10T18:50:57.448Z,100645.00
2023-03-10T18:53:25.594Z,100653.00
2023-03-10T18:55:52.776Z,100658.00
2023-03-10T18:58:19.691Z,100668.00
2023-03-10T19:00:46.471Z,100665.00
2023-03-10T19:03:13.680Z,100679.00
2023-03-10T19:05:40.926Z,100696.00
2023-03-10T19:08:07.934Z,100694.00
2023-03-10T19:10:34.560Z,100690.00
2023-03-10T19:13:01.117Z,100683.00
2023-03-10T19:15:27.780Z,100677.00
2023-03-10T19:17:55.188Z,100679.00
2023-03-10T19:20:21.890Z,100685.00
2023-03-10T19:22:50.888Z,100684.00
2023-03-10T19:25:18.836Z,100688.00
2023-03-10T19:27:46.236Z,100691.00
2023-03-10T19:30:17.175Z,100702.00
2023-03-10T19:32:45.112Z,100699.00
2023-03-10T19:35:12.393Z,100701.00
2023-03-10T19:37:43.828Z,100708.00
2023-03-10T19:40:16.952Z,100704.00
2023-03-10T19:42:43.584Z,100725.00
2023-03-10T19:45:15.719Z,100728.00
2023-03-10T19:47:42.701Z,100720.00
2023-03-10T19:50:11.512Z,100733.00
2023-03-10T19:52:43.433Z,100736.00
2023-03-10T19:55:14.083Z,100738.00
2023-03-10T19:57:41.142Z,100730.00
2023-03-10T20:00:13.625Z,100738.00
2023-03-10T20:02:42.387Z,100744.00
2023-03-10T20:05:09.558Z,100750.00
2023-03-10T20:07:36.169Z,100745.00
2023-03-10T20:10:03.525Z,100756.00
2023-03-10T20:12:30.192Z,100762.00
2023-03-10T20:15:00.194Z,100767.00
2023-03-10T20:17:27.892Z,100763.00
2023-03-10T20:19:54.546Z,100768.00
2023-03-10T20:22:21.255Z,100762.00
2023-03-10T20:24:47.915Z,100747.00
2023-03-10T20:27:14.637Z,100747.00
2023-03-10T20:29:42.132Z,100750.00
2023-03-10T20:32:08.895Z,100743.00
2023-03-10T20:34:35.665Z,100755.00
2023-03-10T20:37:02.274Z,100762.00
2023-03-10T20:39:29.029Z,100760.00
2023-03-10T20:41:55.658Z,100757.00
2023-03-10T20:44:22.324Z,100760.00
2023-03-10T20:46:48.984Z,100762.00
2023-03-10T20:49:15.606Z,100776.00
2023-03-10T20:51:42.228Z,100790.00
2023-03-10T20:54:08.831Z,100800.00
2023-03-10T20:56:35.726Z,100809.00
2023-03-10T20:59:02.499Z,100815.00
2023-03-10T21:01:30.077Z,100827.00
2023-03-10T21:03:58.589Z,100826.00
2023-03-10T21:06:27.020Z,100817.00
2023-03-10T21:08:53.936Z,100803.00
2023-03-10T21:11:20.786Z,100807.00
2023-03-10T21:13:47.437Z,100824.00
2023-03-10T21:16:14.057Z,100810.00
2023-03-10T21:18:40.625Z,100810.00
2023-03-10T21:21:09.867Z,100829.00
2023-03-10T21:23:38.324Z,100832.00
2023-03-10T21:26:16.745Z,100837.00
2023-03-10T21:28:43.686Z,100851.00
2023-03-10T21:31:10.966Z,100851.00
2023-03-10T21:33:38.316Z,100849.00
2023-03-10T21:36:05.271Z,100856.00
2023-03-10T21:38:32.168Z,100857.00
2023-03-10T21:40:58.976Z,100862.00
2023-03-10T21:43:27.363Z,100852.00
2023-03-10T21:45:54.027Z,100853.00
2023-03-10T21:48:20.701Z,100844.00
2023-03-10T21:50:47.384Z,100845.00
2023-03-10T21:53:14.083Z,100853.00
2023-03-10T21:55:40.992Z,100847.00
2023-03-10T21:58:07.654Z,100839.00
2023-03-10T22:00:36.260Z,100844.00
2023-03-10T22:03:04.680Z,100839.00
2023-03-10T22:05:31.331Z,100850.00
2023-03-10T22:07:59.257Z,100871.00
2023-03-10T22:10:26.008Z,100881.00
2023-03-10T22:12:52.775Z,100876.00
2023-03-10T22:15:22.817Z,100861.00
2023-03-10T22:17:50.377Z,100865.00
2023-03-10T22:20:20.864Z,100857.00
2023-03-10T22:22:47.716Z,100845.00
2023-03-10T22:25:14.995Z,100834.00
2023-03-10T22:27:42.706Z,100856.00
2023-03-10T22:30:10.300Z,100846.00
2023-03-10T22:32:36.969Z,100858.00
2023-03-10T22:35:03.816Z,100860.00
2023-03-10T22:37:30.484Z,100863.00
2023-03-10T22:39:57.027Z,100869.00
2023-03-10T22:42:23.634Z,100868.00
2023-03-10T22:44:50.195Z,100863.00
2023-03-10T22:47:17.724Z,100870.00
2023-03-10T22:49:44.407Z,100877.00
2023-03-10T22:52:11.099Z,100890.00
2023-03-10T22:54:37.777Z,100902.00
2023-03-10T22:57:04.572Z,100890.00
2023-03-10T22:59:31.259Z,100892.00
2023-03-10T23:01:57.921Z,100902.00
2023-03-10T23:04:24.926Z,100900.00
2023-03-10T23:06:51.613Z,100897.00
2023-03-10T23:09:18.295Z,100888.00
2023-03-10T23:11:46.662Z,100875.00
2023-03-10T23:14:13.380Z,100874.00
2023-03-10T23:16:40.351Z,100882.00
2023-03-10T23:19:08.693Z,100884.00
2023-03-10T23:21:36.137Z,100884.00
2023-03-10T23:24:03.119Z,100885.00
2023-03-10T23:26:30.175Z,100885.00
2023-03-10T23:28:57.414Z,100899.00
2023-03-10T23:31:24.813Z,100897.00
2023-03-10T23:33:51.624Z,100892.00
2023-03-10T23:36:19.092Z,100896.00
2023-03-10T23:38:45.763Z,100900.00
2023-03-10T23:41:13.078Z,100904.00
2023-03-10T23:43:39.710Z,100902.00
2023-03-10T23:46:08.219Z,100910.00
2023-03-10T23:48:35.633Z,100908.00
2023-03-10T23:51:02.991Z,100905.00
2023-03-10T23:53:30.446Z,100902.00
2023-03-10T23:55:58.830Z,100899.00
2023-03-10T23:58:26.403Z,100903.00
